sim
Sign-in with your pilot id or email,
or register
Callsign
Passwort

Schedule Details

Flight Number: DLH2284 (2)
Departure: Munich Airport (EDDM) at 07:35
Arrival: Brussels Airport (EBBR) at 09:00
Route: Lufthansa Passenger Schedule. Enter filed route here before submitting Pirep.

Weather Information
Getting current METAR information for EDDM 282150Z VRB02KT CAVOK 08/07 Q1016 NOSIG
Getting current METAR information for EBBR 282150Z 29009KT 4500 -RADZ SCT004 OVC006 14/12 Q1013 TEMPO 2500 RA BKN004 OVC006

Schedule Frequency

Route Map